createdAt,value
2023-03-25T00:00:33.154Z,10.53
2023-03-25T00:01:35.148Z,10.53
2023-03-25T00:02:38.376Z,10.55
2023-03-25T00:03:46.796Z,10.55
2023-03-25T00:04:54.993Z,10.55
2023-03-25T00:05:57.663Z,10.53
2023-03-25T00:06:59.668Z,10.51
2023-03-25T00:08:01.430Z,10.47
2023-03-25T00:09:04.177Z,10.43
2023-03-25T00:10:06.680Z,10.40
2023-03-25T00:11:08.613Z,10.34
2023-03-25T00:12:10.426Z,10.33
2023-03-25T00:13:13.868Z,10.33
2023-03-25T00:14:17.601Z,10.34
2023-03-25T00:15:19.990Z,10.34
2023-03-25T00:16:21.915Z,10.37
2023-03-25T00:17:23.871Z,10.34
2023-03-25T00:18:26.847Z,10.32
2023-03-25T00:19:28.760Z,10.35
2023-03-25T00:20:32.658Z,10.37
2023-03-25T00:21:34.608Z,10.38
2023-03-25T00:22:41.456Z,10.36
2023-03-25T00:23:43.895Z,10.35
2023-03-25T00:24:45.667Z,10.35
2023-03-25T00:25:47.835Z,10.35
2023-03-25T00:26:49.717Z,10.37
2023-03-25T00:27:51.656Z,10.37
2023-03-25T00:28:53.435Z,10.40
2023-03-25T00:29:55.731Z,10.43
2023-03-25T00:31:01.719Z,10.46
2023-03-25T00:32:03.495Z,10.49
2023-03-25T00:33:05.379Z,10.48
2023-03-25T00:34:07.932Z,10.47
2023-03-25T00:35:10.129Z,10.47
2023-03-25T00:36:15.290Z,10.48
2023-03-25T00:37:21.934Z,10.47
2023-03-25T00:38:24.791Z,10.44
2023-03-25T00:39:26.667Z,10.40
2023-03-25T00:40:29.606Z,10.39
2023-03-25T00:41:31.595Z,10.41
2023-03-25T00:42:35.158Z,10.43
2023-03-25T00:43:36.970Z,10.34
2023-03-25T00:44:38.730Z,10.28
2023-03-25T00:45:40.624Z,10.31
2023-03-25T00:46:42.467Z,10.36
2023-03-25T00:47:44.337Z,10.39
2023-03-25T00:48:46.566Z,10.38
2023-03-25T00:49:49.012Z,10.38
2023-03-25T00:50:50.999Z,10.38
2023-03-25T00:51:53.993Z,10.38
2023-03-25T00:52:56.140Z,10.41
2023-03-25T00:54:01.638Z,10.37
2023-03-25T00:55:04.916Z,10.17
2023-03-25T00:56:06.981Z,10.03
2023-03-25T00:57:08.858Z,9.95
2023-03-25T00:58:10.854Z,9.98
2023-03-25T00:59:12.666Z,10.01
2023-03-25T01:00:16.186Z,10.03
2023-03-25T01:01:23.713Z,10.01
2023-03-25T01:02:26.011Z,9.99
2023-03-25T01:03:29.282Z,9.97
2023-03-25T01:04:31.254Z,9.99
2023-03-25T01:05:33.514Z,10.00
2023-03-25T01:06:36.351Z,9.98
2023-03-25T01:07:38.947Z,9.95
2023-03-25T01:08:42.296Z,9.95
2023-03-25T01:09:46.975Z,9.94
2023-03-25T01:10:48.783Z,9.91
2023-03-25T01:11:50.681Z,9.96
2023-03-25T01:12:52.445Z,10.00
2023-03-25T01:13:55.669Z,10.02
2023-03-25T01:14:57.567Z,10.06
2023-03-25T01:15:59.418Z,10.12
2023-03-25T01:17:01.329Z,10.17
2023-03-25T01:18:03.097Z,10.20
2023-03-25T01:19:05.039Z,10.24
2023-03-25T01:20:09.391Z,10.28
2023-03-25T01:21:11.276Z,10.31
2023-03-25T01:22:13.286Z,10.33
2023-03-25T01:23:15.202Z,10.33
2023-03-25T01:24:17.063Z,10.35
2023-03-25T01:25:19.091Z,10.34
2023-03-25T01:26:20.859Z,10.32
2023-03-25T01:27:24.929Z,10.31
2023-03-25T01:28:28.519Z,10.29
2023-03-25T01:29:30.543Z,10.30
2023-03-25T01:30:32.376Z,10.26
2023-03-25T01:31:34.223Z,10.24
2023-03-25T01:32:36.144Z,10.21
2023-03-25T01:33:38.136Z,10.23
2023-03-25T01:34:39.899Z,10.23
2023-03-25T01:35:42.310Z,10.19
2023-03-25T01:36:46.809Z,10.17
2023-03-25T01:37:48.879Z,10.21
2023-03-25T01:38:51.065Z,10.25
2023-03-25T01:39:53.231Z,10.21
2023-03-25T01:40:55.080Z,10.16
2023-03-25T01:41:56.946Z,10.11
2023-03-25T01:42:58.831Z,10.05
2023-03-25T01:44:09.837Z,10.02
2023-03-25T01:45:14.370Z,10.02
2023-03-25T01:46:17.638Z,10.00
2023-03-25T01:47:19.703Z,9.92
2023-03-25T01:48:24.533Z,9.89
2023-03-25T01:49:33.782Z,9.88
2023-03-25T01:50:36.761Z,9.88
2023-03-25T01:51:40.750Z,9.90
2023-03-25T01:52:48.165Z,9.97
2023-03-25T01:53:51.265Z,9.97
2023-03-25T01:54:54.649Z,9.94
2023-03-25T01:55:56.892Z,9.93
2023-03-25T01:56:59.475Z,9.93
2023-03-25T01:58:02.854Z,9.96
2023-03-25T01:59:06.389Z,10.02
2023-03-25T02:00:09.807Z,9.99
2023-03-25T02:01:13.884Z,9.96
2023-03-25T02:02:18.015Z,9.97
2023-03-25T02:03:21.755Z,9.98
2023-03-25T02:04:39.452Z,9.93
2023-03-25T02:05:44.114Z,9.88
2023-03-25T02:06:51.212Z,9.89
2023-03-25T02:07:54.926Z,9.90
2023-03-25T02:08:58.546Z,9.91
2023-03-25T02:10:02.642Z,9.91
2023-03-25T02:11:05.197Z,9.94
2023-03-25T02:12:07.038Z,9.95
2023-03-25T02:13:08.925Z,9.93
2023-03-25T02:14:13.286Z,9.96
2023-03-25T02:15:16.665Z,9.97
2023-03-25T02:16:18.446Z,9.84
2023-03-25T02:17:27.824Z,9.73
2023-03-25T02:18:29.550Z,9.76
2023-03-25T02:19:47.182Z,9.78
2023-03-25T02:21:18.361Z,9.82
2023-03-25T02:22:25.987Z,9.77
2023-03-25T02:23:42.319Z,9.80
2023-03-25T02:25:10.475Z,9.83
2023-03-25T02:26:12.366Z,9.86
2023-03-25T02:27:46.257Z,9.93
2023-03-25T02:29:05.369Z,9.99
2023-03-25T02:30:32.494Z,9.94
2023-03-25T02:31:37.440Z,9.90
2023-03-25T02:32:39.334Z,9.78
2023-03-25T02:34:14.879Z,9.64
2023-03-25T02:35:19.676Z,9.59
2023-03-25T02:36:37.627Z,9.62
2023-03-25T02:38:06.659Z,9.66
2023-03-25T02:39:45.845Z,9.73
2023-03-25T02:40:47.780Z,9.74
2023-03-25T02:41:58.681Z,9.75
2023-03-25T02:43:31.356Z,9.81
2023-03-25T02:44:53.664Z,9.87
2023-03-25T02:46:01.787Z,9.92
2023-03-25T02:47:09.393Z,9.93
2023-03-25T02:48:26.343Z,9.92
2023-03-25T02:49:56.461Z,9.92
2023-03-25T02:51:02.089Z,9.91
2023-03-25T02:52:17.583Z,9.86
2023-03-25T02:53:39.072Z,9.80
2023-03-25T02:54:45.233Z,9.83
2023-03-25T02:55:49.843Z,9.88
2023-03-25T02:56:57.854Z,9.91
2023-03-25T02:58:05.125Z,9.87
2023-03-25T02:59:10.177Z,9.86
2023-03-25T03:00:18.094Z,9.88
2023-03-25T03:01:23.065Z,9.90
2023-03-25T03:02:27.891Z,9.95
2023-03-25T03:03:29.943Z,9.95
2023-03-25T03:04:32.045Z,9.92
2023-03-25T03:05:41.014Z,9.90
2023-03-25T03:06:44.432Z,9.87
2023-03-25T03:07:51.821Z,9.82
2023-03-25T03:09:05.229Z,9.81
2023-03-25T03:10:32.914Z,9.86
2023-03-25T03:12:21.206Z,9.82
2023-03-25T03:13:53.823Z,9.66
2023-03-25T03:15:34.589Z,9.63
2023-03-25T03:16:58.740Z,9.55
2023-03-25T03:18:14.089Z,9.48
2023-03-25T03:19:16.035Z,9.53
2023-03-25T03:20:18.450Z,9.59
2023-03-25T03:21:23.687Z,9.65
2023-03-25T03:22:30.348Z,9.67
2023-03-25T03:23:37.298Z,9.67
2023-03-25T03:24:42.347Z,9.72
2023-03-25T03:25:51.004Z,9.74
2023-03-25T03:26:56.442Z,9.76
2023-03-25T03:28:04.957Z,9.76
2023-03-25T03:29:12.725Z,9.75
2023-03-25T03:30:26.854Z,9.73
2023-03-25T03:31:48.855Z,9.69
2023-03-25T03:33:02.249Z,9.67
2023-03-25T03:34:10.860Z,9.56
2023-03-25T03:35:29.367Z,9.53
2023-03-25T03:36:33.015Z,9.57
2023-03-25T03:37:38.112Z,9.62
2023-03-25T03:38:43.568Z,9.66
2023-03-25T03:39:46.465Z,9.70
2023-03-25T03:40:52.058Z,9.69
2023-03-25T03:41:55.660Z,9.55
2023-03-25T03:42:57.461Z,9.45
2023-03-25T03:44:03.021Z,9.43
2023-03-25T03:45:14.429Z,9.47
2023-03-25T03:46:30.441Z,9.50
2023-03-25T03:47:37.101Z,9.51
2023-03-25T03:48:42.038Z,9.51
2023-03-25T03:49:46.511Z,9.56
2023-03-25T03:50:53.774Z,9.62
2023-03-25T03:52:22.576Z,9.64
2023-03-25T03:53:30.351Z,9.63
2023-03-25T03:54:38.886Z,9.57
2023-03-25T03:55:43.495Z,9.47
2023-03-25T03:56:53.744Z,9.43
2023-03-25T03:58:03.816Z,9.36
2023-03-25T03:59:11.445Z,9.28
2023-03-25T04:00:18.306Z,9.25
2023-03-25T04:01:28.317Z,9.26
2023-03-25T04:02:39.023Z,9.30
2023-03-25T04:03:52.501Z,9.31
2023-03-25T04:04:54.897Z,9.30
2023-03-25T04:06:27.931Z,9.30
2023-03-25T04:07:41.806Z,9.23
2023-03-25T04:09:19.162Z,9.14
2023-03-25T04:10:52.997Z,9.12
2023-03-25T04:12:06.374Z,9.12
2023-03-25T04:13:16.534Z,9.15
2023-03-25T04:14:19.042Z,9.14
2023-03-25T04:15:21.801Z,9.17
2023-03-25T04:16:25.146Z,9.15
2023-03-25T04:17:30.555Z,9.19
2023-03-25T04:18:34.221Z,9.24
2023-03-25T04:19:36.396Z,9.21
2023-03-25T04:20:45.168Z,9.15
2023-03-25T04:21:51.036Z,9.13
2023-03-25T04:22:53.159Z,9.11
2023-03-25T04:23:55.222Z,9.12
2023-03-25T04:25:00.508Z,9.17
2023-03-25T04:26:03.131Z,9.21
2023-03-25T04:27:05.182Z,9.22
2023-03-25T04:28:07.384Z,9.23
2023-03-25T04:29:10.451Z,9.30
2023-03-25T04:30:12.772Z,9.34
2023-03-25T04:31:15.936Z,9.39
2023-03-25T04:32:18.347Z,9.43
2023-03-25T04:33:21.115Z,9.48
2023-03-25T04:34:23.269Z,9.53
2023-03-25T04:35:26.149Z,9.56
2023-03-25T04:36:29.050Z,9.55
2023-03-25T04:37:34.052Z,9.54
2023-03-25T04:38:38.006Z,9.52
2023-03-25T04:39:40.048Z,9.48
2023-03-25T04:40:47.250Z,9.43
2023-03-25T04:41:50.587Z,9.43
2023-03-25T04:42:53.540Z,9.44
2023-03-25T04:43:55.639Z,9.44
2023-03-25T04:44:57.562Z,9.44
2023-03-25T04:46:00.602Z,9.44
2023-03-25T04:47:03.059Z,9.46
2023-03-25T04:48:06.322Z,9.51
2023-03-25T04:49:14.512Z,9.51
2023-03-25T04:50:23.940Z,9.53
2023-03-25T04:51:25.959Z,9.54
2023-03-25T04:52:27.908Z,9.45
2023-03-25T04:53:30.513Z,9.38
2023-03-25T04:54:32.528Z,9.43
2023-03-25T04:55:34.955Z,9.47
2023-03-25T04:56:37.115Z,9.49
2023-03-25T04:57:39.060Z,9.39
2023-03-25T04:58:40.976Z,9.40
2023-03-25T04:59:43.118Z,9.39
2023-03-25T05:00:50.236Z,9.37
2023-03-25T05:01:53.038Z,9.38
2023-03-25T05:02:56.514Z,9.40
2023-03-25T05:04:07.598Z,9.30
2023-03-25T05:05:09.637Z,9.18
2023-03-25T05:06:11.615Z,9.20
2023-03-25T05:07:13.585Z,9.18
2023-03-25T05:08:15.587Z,9.20
2023-03-25T05:09:20.562Z,9.23
2023-03-25T05:10:26.645Z,9.27
2023-03-25T05:11:29.612Z,9.28
2023-03-25T05:12:32.328Z,9.33
2023-03-25T05:13:34.267Z,9.30
2023-03-25T05:14:36.314Z,9.21
2023-03-25T05:15:41.153Z,9.15
2023-03-25T05:16:44.107Z,9.13
2023-03-25T05:17:46.402Z,9.13
2023-03-25T05:18:48.773Z,9.16
2023-03-25T05:19:53.248Z,9.22
2023-03-25T05:20:57.274Z,9.28
2023-03-25T05:22:01.881Z,9.31
2023-03-25T05:23:04.873Z,9.28
2023-03-25T05:24:10.570Z,9.32
2023-03-25T05:25:12.575Z,9.34
2023-03-25T05:26:14.749Z,9.33
2023-03-25T05:27:20.514Z,9.38
2023-03-25T05:28:22.569Z,9.43
2023-03-25T05:29:24.524Z,9.39
2023-03-25T05:30:32.971Z,9.25
2023-03-25T05:31:35.661Z,9.21
2023-03-25T05:32:41.420Z,9.23
2023-03-25T05:33:43.832Z,9.30
2023-03-25T05:34:49.282Z,9.32
2023-03-25T05:35:51.572Z,9.36
2023-03-25T05:36:54.439Z,9.41
2023-03-25T05:37:57.085Z,9.43
2023-03-25T05:38:59.557Z,9.47
2023-03-25T05:40:02.552Z,9.51
2023-03-25T05:41:16.873Z,9.58
2023-03-25T05:42:23.372Z,9.61
2023-03-25T05:43:25.303Z,9.66
2023-03-25T05:44:27.326Z,9.65
2023-03-25T05:45:29.686Z,9.57
2023-03-25T05:46:31.608Z,9.55
2023-03-25T05:47:33.713Z,9.51
2023-03-25T05:48:35.914Z,9.51
2023-03-25T05:49:38.155Z,9.46
2023-03-25T05:50:43.007Z,9.45
2023-03-25T05:51:45.331Z,9.46
2023-03-25T05:52:49.867Z,9.48
2023-03-25T05:53:52.045Z,9.47
2023-03-25T05:54:54.061Z,9.47
2023-03-25T05:55:56.080Z,9.46
2023-03-25T05:56:58.175Z,9.44
2023-03-25T05:58:00.264Z,9.44
2023-03-25T05:59:03.065Z,9.47
2023-03-25T06:00:08.252Z,9.43
2023-03-25T06:01:25.448Z,9.40
2023-03-25T06:02:35.777Z,9.43
2023-03-25T06:03:38.821Z,9.45
2023-03-25T06:04:43.789Z,9.46
2023-03-25T06:05:45.855Z,9.53
2023-03-25T06:06:48.047Z,9.53
2023-03-25T06:07:50.337Z,9.54
2023-03-25T06:08:52.392Z,9.52
2023-03-25T06:09:54.480Z,9.53
2023-03-25T06:11:01.031Z,9.53
2023-03-25T06:12:04.272Z,9.49
2023-03-25T06:13:07.126Z,9.46
2023-03-25T06:14:09.461Z,9.47
2023-03-25T06:15:12.223Z,9.51
2023-03-25T06:16:14.379Z,9.55
2023-03-25T06:17:19.169Z,9.55
2023-03-25T06:18:24.857Z,9.59
2023-03-25T06:19:27.178Z,9.59
2023-03-25T06:20:29.131Z,9.64
2023-03-25T06:21:33.634Z,9.70
2023-03-25T06:22:38.155Z,9.77
2023-03-25T06:23:40.261Z,9.80
2023-03-25T06:24:43.198Z,9.85
2023-03-25T06:25:45.219Z,9.80
2023-03-25T06:26:47.178Z,9.81
2023-03-25T06:27:50.780Z,9.79
2023-03-25T06:28:53.022Z,9.69
2023-03-25T06:29:55.085Z,9.67
2023-03-25T06:30:57.628Z,9.68
2023-03-25T06:31:59.662Z,9.71
2023-03-25T06:33:06.348Z,9.73
2023-03-25T06:34:08.295Z,9.77
2023-03-25T06:35:12.117Z,9.79
2023-03-25T06:36:18.934Z,9.82
2023-03-25T06:37:22.149Z,9.84
2023-03-25T06:38:24.205Z,9.84
2023-03-25T06:39:26.703Z,9.86
2023-03-25T06:40:28.773Z,9.90
2023-03-25T06:41:30.682Z,9.94
2023-03-25T06:42:33.012Z,9.98
2023-03-25T06:43:35.389Z,9.98
2023-03-25T06:44:37.208Z,9.98
2023-03-25T06:45:39.297Z,9.96
2023-03-25T06:46:41.426Z,9.96
2023-03-25T06:47:43.578Z,9.96
2023-03-25T06:48:45.575Z,9.97
2023-03-25T06:49:47.596Z,10.01
2023-03-25T06:50:49.632Z,10.02
2023-03-25T06:51:51.936Z,10.05
2023-03-25T06:52:54.004Z,10.05
2023-03-25T06:53:56.170Z,10.09
2023-03-25T06:54:58.382Z,10.04
2023-03-25T06:56:00.370Z,10.02
2023-03-25T06:57:02.429Z,9.98
2023-03-25T06:58:04.982Z,9.98
2023-03-25T06:59:07.096Z,10.01
2023-03-25T07:00:12.579Z,10.05
2023-03-25T07:01:14.579Z,10.12
2023-03-25T07:02:16.617Z,10.17
2023-03-25T07:03:18.648Z,10.19
2023-03-25T07:04:20.940Z,10.21
2023-03-25T07:05:23.055Z,10.23
2023-03-25T07:06:25.669Z,10.25
2023-03-25T07:07:27.455Z,10.29
2023-03-25T07:08:29.543Z,10.31
2023-03-25T07:09:31.594Z,10.31
2023-03-25T07:10:33.584Z,10.30
2023-03-25T07:11:35.854Z,10.30
2023-03-25T07:12:37.775Z,10.19
2023-03-25T07:13:39.852Z,10.12
2023-03-25T07:14:41.954Z,10.09
2023-03-25T07:15:43.931Z,10.08
2023-03-25T07:16:46.237Z,10.10
2023-03-25T07:17:49.681Z,10.15
2023-03-25T07:18:52.457Z,10.19
2023-03-25T07:19:54.642Z,10.21
2023-03-25T07:20:56.693Z,10.25
2023-03-25T07:21:58.623Z,10.32
2023-03-25T07:23:01.113Z,10.36
2023-03-25T07:24:03.383Z,10.38
2023-03-25T07:25:05.995Z,10.40
2023-03-25T07:26:08.085Z,10.44
2023-03-25T07:27:14.649Z,10.42
2023-03-25T07:28:16.921Z,10.43
2023-03-25T07:29:19.270Z,10.46
2023-03-25T07:30:21.227Z,10.45
2023-03-25T07:31:23.337Z,10.41
2023-03-25T07:32:25.624Z,10.33
2023-03-25T07:33:27.741Z,10.36
2023-03-25T07:34:29.835Z,10.44
2023-03-25T07:35:32.143Z,10.50
2023-03-25T07:36:34.192Z,10.52
2023-03-25T07:37:36.208Z,10.60
2023-03-25T07:38:38.387Z,10.61
2023-03-25T07:39:40.461Z,10.63
2023-03-25T07:40:42.444Z,10.65
2023-03-25T07:41:44.532Z,10.66
2023-03-25T07:42:46.717Z,10.65
2023-03-25T07:43:48.725Z,10.65
2023-03-25T07:44:50.741Z,10.67
2023-03-25T07:45:54.344Z,10.68
2023-03-25T07:46:56.395Z,10.69
2023-03-25T07:48:01.601Z,10.73
2023-03-25T07:49:03.609Z,10.75
2023-03-25T07:50:06.433Z,10.77
2023-03-25T07:51:09.482Z,10.79
2023-03-25T07:52:11.477Z,10.80
2023-03-25T07:53:13.458Z,10.79
2023-03-25T07:54:15.676Z,10.80
2023-03-25T07:55:17.880Z,10.82
2023-03-25T07:56:19.836Z,10.85
2023-03-25T07:57:22.208Z,10.85
2023-03-25T07:58:23.972Z,10.85
2023-03-25T07:59:28.063Z,10.87
2023-03-25T08:00:31.251Z,10.86
2023-03-25T08:01:33.227Z,10.88
2023-03-25T08:02:35.231Z,10.89
2023-03-25T08:03:40.171Z,10.93
2023-03-25T08:04:42.527Z,10.92
2023-03-25T08:05:48.239Z,10.94
2023-03-25T08:06:50.374Z,10.96
2023-03-25T08:07:53.128Z,10.97
2023-03-25T08:08:56.121Z,10.97
2023-03-25T08:09:58.074Z,10.97
2023-03-25T08:11:00.472Z,10.99
2023-03-25T08:12:02.832Z,11.05
2023-03-25T08:13:04.839Z,11.10
2023-03-25T08:14:06.912Z,11.16
2023-03-25T08:15:09.661Z,11.20
2023-03-25T08:16:15.696Z,11.25
2023-03-25T08:17:17.922Z,11.29
2023-03-25T08:18:20.215Z,11.30
2023-03-25T08:19:27.705Z,11.32
2023-03-25T08:20:30.239Z,11.34
2023-03-25T08:21:32.278Z,11.37
2023-03-25T08:22:34.722Z,11.40
2023-03-25T08:23:37.601Z,11.43
2023-03-25T08:24:39.577Z,11.45
2023-03-25T08:25:42.253Z,11.47
2023-03-25T08:26:44.352Z,11.48
2023-03-25T08:27:46.350Z,11.49
2023-03-25T08:28:48.836Z,11.50
2023-03-25T08:29:57.627Z,11.48
2023-03-25T08:31:02.660Z,11.50
2023-03-25T08:32:04.782Z,11.50
2023-03-25T08:33:07.835Z,11.52
2023-03-25T08:34:09.890Z,11.51
2023-03-25T08:35:13.885Z,11.55
2023-03-25T08:36:20.211Z,11.55
2023-03-25T08:37:24.146Z,11.59
2023-03-25T08:38:32.448Z,11.63
2023-03-25T08:39:40.187Z,11.66
2023-03-25T08:40:44.541Z,11.69
2023-03-25T08:41:46.657Z,11.69
2023-03-25T08:42:48.582Z,11.70
2023-03-25T08:43:50.881Z,11.74
2023-03-25T08:44:52.904Z,11.74
2023-03-25T08:45:55.005Z,11.78
2023-03-25T08:46:57.068Z,11.79
2023-03-25T08:47:59.465Z,11.77
2023-03-25T08:49:01.579Z,11.74
2023-03-25T08:50:04.332Z,11.72
2023-03-25T08:51:06.725Z,11.70
2023-03-25T08:52:08.955Z,11.68
2023-03-25T08:53:11.058Z,11.65
2023-03-25T08:54:13.142Z,11.65
2023-03-25T08:55:16.526Z,11.65
2023-03-25T08:56:18.562Z,11.67
2023-03-25T08:57:20.839Z,11.70
2023-03-25T08:58:23.963Z,11.71
2023-03-25T08:59:26.076Z,11.71
2023-03-25T09:00:28.512Z,11.70
2023-03-25T09:01:31.149Z,11.71
2023-03-25T09:02:33.174Z,11.75
2023-03-25T09:03:35.280Z,11.76
2023-03-25T09:04:39.254Z,11.78
2023-03-25T09:05:41.328Z,11.81
2023-03-25T09:06:47.763Z,11.85
2023-03-25T09:07:50.777Z,11.86
2023-03-25T09:08:52.639Z,11.91
2023-03-25T09:09:54.643Z,11.90
2023-03-25T09:10:56.704Z,11.95
2023-03-25T09:11:58.796Z,11.94
2023-03-25T09:13:00.963Z,11.95
2023-03-25T09:14:04.108Z,11.99
2023-03-25T09:15:06.794Z,11.99
2023-03-25T09:16:09.832Z,11.99
2023-03-25T09:17:11.878Z,11.98
2023-03-25T09:18:14.093Z,11.95
2023-03-25T09:19:16.261Z,11.93
2023-03-25T09:20:18.996Z,11.96
2023-03-25T09:21:21.152Z,12.03
2023-03-25T09:22:25.196Z,12.14
2023-03-25T09:23:27.374Z,12.28
2023-03-25T09:24:29.353Z,12.43
2023-03-25T09:25:31.370Z,12.55
2023-03-25T09:26:33.437Z,12.69
2023-03-25T09:27:36.431Z,12.75
2023-03-25T09:28:38.480Z,12.83
2023-03-25T09:29:41.189Z,12.84
2023-03-25T09:30:43.213Z,12.78
2023-03-25T09:31:45.467Z,12.81
2023-03-25T09:32:47.470Z,12.84
2023-03-25T09:33:49.469Z,12.86
2023-03-25T09:34:51.969Z,12.85
2023-03-25T09:35:54.680Z,12.88
2023-03-25T09:36:57.287Z,12.95
2023-03-25T09:37:59.290Z,12.99
2023-03-25T09:39:01.570Z,13.04
2023-03-25T09:40:05.491Z,13.07
2023-03-25T09:41:48.134Z,13.02
2023-03-25T09:43:04.963Z,12.99
2023-03-25T09:44:18.673Z,12.97
2023-03-25T09:45:33.022Z,13.06
2023-03-25T09:46:38.601Z,13.16
2023-03-25T09:48:04.336Z,13.21
2023-03-25T09:49:16.988Z,13.27
2023-03-25T09:50:21.496Z,13.28
2023-03-25T09:51:36.961Z,13.23
2023-03-25T09:52:52.777Z,13.25
2023-03-25T09:54:25.623Z,13.36
2023-03-25T09:55:32.681Z,13.50
2023-03-25T09:56:42.102Z,13.60
2023-03-25T09:57:49.532Z,13.69
2023-03-25T09:59:01.904Z,13.82
2023-03-25T10:00:07.374Z,13.88
2023-03-25T10:01:27.199Z,14.01
2023-03-25T10:02:41.732Z,14.08
2023-03-25T10:03:59.796Z,14.24
2023-03-25T10:05:25.288Z,14.31
2023-03-25T10:06:27.959Z,14.35
2023-03-25T10:07:29.751Z,14.41
2023-03-25T10:08:40.617Z,14.46
2023-03-25T10:09:42.480Z,14.50
2023-03-25T10:10:44.224Z,14.52
2023-03-25T10:12:05.935Z,14.54
2023-03-25T10:13:26.330Z,14.57
2023-03-25T10:14:33.293Z,14.52
2023-03-25T10:15:35.086Z,14.48
2023-03-25T10:16:36.861Z,14.46
2023-03-25T10:17:38.716Z,14.46
2023-03-25T10:18:41.219Z,14.42
2023-03-25T10:19:57.406Z,14.37
2023-03-25T10:21:10.208Z,14.32
2023-03-25T10:22:27.128Z,14.17
2023-03-25T10:23:28.815Z,14.09
2023-03-25T10:24:39.629Z,14.03
2023-03-25T10:25:45.975Z,14.09
2023-03-25T10:27:03.037Z,14.18
2023-03-25T10:28:05.934Z,14.26
2023-03-25T10:29:11.701Z,14.26
2023-03-25T10:30:15.734Z,14.29
2023-03-25T10:31:19.229Z,14.33
2023-03-25T10:32:47.287Z,14.37
2023-03-25T10:33:58.140Z,14.50
2023-03-25T10:35:02.408Z,14.45
2023-03-25T10:36:06.591Z,14.37
2023-03-25T10:37:12.928Z,14.23
2023-03-25T10:38:26.900Z,14.13
2023-03-25T10:39:34.438Z,13.99
2023-03-25T10:40:44.943Z,13.98
2023-03-25T10:41:50.926Z,14.00
2023-03-25T10:43:06.072Z,14.03
2023-03-25T10:44:09.434Z,14.04
2023-03-25T10:45:18.473Z,14.02
2023-03-25T10:46:28.070Z,14.00
2023-03-25T10:47:33.474Z,13.98
2023-03-25T10:48:36.014Z,13.96
2023-03-25T10:49:41.843Z,13.96
2023-03-25T10:50:43.977Z,13.98
2023-03-25T10:51:47.402Z,14.00
2023-03-25T10:52:51.978Z,14.03
2023-03-25T10:53:53.985Z,13.98
2023-03-25T10:54:57.142Z,13.97
2023-03-25T10:56:02.647Z,13.97
2023-03-25T10:57:08.320Z,14.00
2023-03-25T10:58:16.189Z,14.01
2023-03-25T10:59:23.184Z,14.02
2023-03-25T11:00:26.650Z,14.00
2023-03-25T11:01:38.914Z,14.07
2023-03-25T11:02:41.127Z,14.05
2023-03-25T11:03:43.627Z,13.84
2023-03-25T11:04:47.788Z,13.72
2023-03-25T11:05:49.947Z,13.59
2023-03-25T11:06:55.700Z,13.72
2023-03-25T11:08:08.751Z,13.87
2023-03-25T11:09:23.780Z,14.06
2023-03-25T11:10:26.812Z,14.16
2023-03-25T11:11:32.951Z,14.19
2023-03-25T11:12:42.839Z,14.19
2023-03-25T11:13:46.538Z,14.18
2023-03-25T11:14:55.196Z,14.26
2023-03-25T11:16:02.497Z,14.32
2023-03-25T11:17:09.943Z,14.38
2023-03-25T11:18:14.557Z,14.56
2023-03-25T11:19:20.910Z,14.51
2023-03-25T11:20:26.705Z,14.49
2023-03-25T11:21:32.667Z,14.49
2023-03-25T11:22:36.535Z,14.57
2023-03-25T11:23:43.990Z,14.58
2023-03-25T11:24:50.140Z,14.59
2023-03-25T11:25:53.245Z,14.64
2023-03-25T11:26:55.220Z,14.66
2023-03-25T11:27:59.161Z,14.60
2023-03-25T11:29:02.695Z,14.55
2023-03-25T11:30:10.715Z,14.52
2023-03-25T11:31:17.750Z,14.45
2023-03-25T11:32:23.771Z,14.47
2023-03-25T11:33:27.279Z,14.58
2023-03-25T11:34:30.107Z,14.61
2023-03-25T11:35:34.903Z,14.56
2023-03-25T11:36:41.574Z,14.54
2023-03-25T11:37:45.358Z,14.49
2023-03-25T11:38:51.411Z,14.38
2023-03-25T11:39:56.154Z,14.28
2023-03-25T11:40:59.102Z,14.26
2023-03-25T11:42:01.410Z,14.23
2023-03-25T11:43:04.588Z,14.18
2023-03-25T11:44:07.244Z,14.08
2023-03-25T11:45:47.109Z,14.04
2023-03-25T11:46:51.455Z,14.04
2023-03-25T11:47:55.628Z,14.13
2023-03-25T11:48:57.684Z,14.16
2023-03-25T11:50:00.307Z,14.19
2023-03-25T11:51:03.094Z,14.20
2023-03-25T11:52:07.246Z,14.20
2023-03-25T11:53:16.632Z,14.14
2023-03-25T11:54:18.888Z,14.11
2023-03-25T11:55:31.513Z,14.07
2023-03-25T11:56:35.040Z,14.05
2023-03-25T11:57:40.711Z,14.07
2023-03-25T11:58:42.528Z,14.08
2023-03-25T11:59:45.957Z,14.09
2023-03-25T12:00:49.399Z,14.11
2023-03-25T12:01:52.937Z,14.11
2023-03-25T12:03:01.573Z,14.08
2023-03-25T12:04:14.345Z,14.06
2023-03-25T12:05:16.945Z,14.05
2023-03-25T12:06:20.470Z,14.06
2023-03-25T12:07:22.429Z,14.08
2023-03-25T12:08:24.314Z,14.11
2023-03-25T12:09:29.065Z,14.23
2023-03-25T12:10:35.114Z,14.59
2023-03-25T12:11:42.845Z,14.97
2023-03-25T12:12:47.629Z,15.24
2023-03-25T12:14:09.855Z,15.59
2023-03-25T12:15:33.652Z,15.97
2023-03-25T12:16:45.658Z,16.32
2023-03-25T12:18:12.676Z,16.66
2023-03-25T12:19:33.052Z,16.71
2023-03-25T12:20:34.807Z,17.05
2023-03-25T12:21:49.306Z,17.34
2023-03-25T12:23:02.720Z,17.68
2023-03-25T12:24:11.819Z,17.79
2023-03-25T12:25:21.774Z,17.61
2023-03-25T12:26:30.352Z,17.47
2023-03-25T12:27:42.554Z,17.32
2023-03-25T12:29:02.596Z,17.15
2023-03-25T12:30:23.100Z,16.98
2023-03-25T12:31:51.542Z,16.76
2023-03-25T12:33:10.516Z,16.62
2023-03-25T12:34:31.184Z,16.46
2023-03-25T12:35:48.243Z,16.48
2023-03-25T12:37:08.769Z,16.60
2023-03-25T12:38:29.276Z,16.58
2023-03-25T12:39:42.220Z,16.58
2023-03-25T12:40:55.326Z,16.57
2023-03-25T12:42:04.346Z,16.48
2023-03-25T12:43:09.107Z,16.34
2023-03-25T12:44:14.016Z,16.19
2023-03-25T12:45:15.840Z,16.07
2023-03-25T12:46:30.714Z,16.00
2023-03-25T12:47:42.362Z,15.86
2023-03-25T12:48:56.330Z,15.86
2023-03-25T12:50:27.336Z,16.14
2023-03-25T12:52:02.021Z,16.38
2023-03-25T12:53:19.430Z,16.71
2023-03-25T12:54:34.665Z,17.11
2023-03-25T12:55:36.487Z,17.02
2023-03-25T12:56:56.934Z,16.90
2023-03-25T12:58:24.819Z,16.86
2023-03-25T12:59:38.310Z,16.76
2023-03-25T13:00:55.085Z,16.67
2023-03-25T13:01:57.075Z,16.50
2023-03-25T13:03:02.508Z,16.38
2023-03-25T13:04:16.185Z,16.32
2023-03-25T13:05:23.280Z,16.22
2023-03-25T13:06:25.272Z,16.17
2023-03-25T13:07:37.028Z,16.50
2023-03-25T13:08:48.397Z,16.61
2023-03-25T13:09:52.492Z,16.57
2023-03-25T13:11:02.880Z,16.51
2023-03-25T13:12:27.255Z,16.36
2023-03-25T13:13:30.628Z,16.35
2023-03-25T13:14:35.378Z,16.52
2023-03-25T13:15:45.077Z,16.55
2023-03-25T13:16:47.983Z,16.53
2023-03-25T13:18:08.712Z,16.55
2023-03-25T13:19:12.055Z,16.60
2023-03-25T13:20:15.136Z,16.61
2023-03-25T13:21:21.946Z,16.67
2023-03-25T13:22:25.694Z,16.65
2023-03-25T13:23:29.490Z,16.61
2023-03-25T13:24:45.943Z,16.65
2023-03-25T13:25:47.857Z,16.79
2023-03-25T13:26:50.506Z,16.70
2023-03-25T13:27:53.276Z,16.65
2023-03-25T13:29:02.087Z,16.62
2023-03-25T13:30:05.482Z,16.79
2023-03-25T13:31:09.897Z,17.02
2023-03-25T13:32:21.173Z,17.23
2023-03-25T13:33:28.874Z,17.32
2023-03-25T13:34:35.680Z,17.36
2023-03-25T13:35:46.909Z,17.29
2023-03-25T13:37:09.166Z,17.15
2023-03-25T13:38:16.571Z,17.03
2023-03-25T13:39:22.479Z,16.95
2023-03-25T13:40:28.135Z,16.83
2023-03-25T13:41:42.031Z,16.68
2023-03-25T13:42:43.876Z,16.89
2023-03-25T13:43:49.821Z,16.92
2023-03-25T13:44:52.734Z,17.29
2023-03-25T13:46:09.077Z,17.51
2023-03-25T13:47:10.919Z,17.35
2023-03-25T13:48:12.734Z,17.22
2023-03-25T13:49:23.736Z,17.03
2023-03-25T13:50:30.518Z,16.94
2023-03-25T13:51:32.353Z,16.74
2023-03-25T13:52:39.549Z,16.60
2023-03-25T13:53:47.677Z,16.42
2023-03-25T13:54:57.282Z,16.22
2023-03-25T13:56:09.044Z,16.04
2023-03-25T13:57:26.969Z,16.04
2023-03-25T13:58:28.754Z,16.05
2023-03-25T13:59:49.195Z,16.04
2023-03-25T14:01:13.029Z,15.96
2023-03-25T14:02:25.455Z,16.05
2023-03-25T14:03:27.747Z,16.32
2023-03-25T14:04:51.609Z,16.64
2023-03-25T14:05:59.269Z,16.98
2023-03-25T14:07:10.357Z,17.23
2023-03-25T14:08:12.586Z,17.41
2023-03-25T14:09:29.477Z,17.61
2023-03-25T14:10:48.948Z,17.82
2023-03-25T14:12:07.492Z,18.09
2023-03-25T14:13:16.128Z,17.90
2023-03-25T14:14:21.893Z,17.72
2023-03-25T14:15:26.362Z,17.82
2023-03-25T14:16:31.828Z,17.74
2023-03-25T14:17:35.982Z,17.54
2023-03-25T14:18:46.493Z,17.26
2023-03-25T14:19:50.384Z,16.90
2023-03-25T14:20:52.364Z,16.81
2023-03-25T14:21:54.534Z,16.94
2023-03-25T14:23:02.238Z,17.18